Time;durP1;ratioP1;P1;durP2;ratioP2;P2;SDS_P1;SDS_P2;PMS_P1;PMS_P2;Temp;Humidity;BMP_temperature;BMP_pressure;BME280_temperature;BME280_humidity;BME280_pressure;Samples;Min_cycle;Max_cycle;Signal;HPM_P1;HPM_P2
2021/07/13 00:01:09;;;;;;;6.93;6.22;;;22.30;93.90;;;;;;5009755;28;20029;-69
2021/07/13 00:03:35;;;;;;;7.72;6.30;;;22.20;94.00;;;;;;5006574;28;20034;-69
2021/07/13 00:06:01;;;;;;;7.10;6.07;;;22.30;94.00;;;;;;4991758;28;20029;-69
2021/07/13 00:08:26;;;;;;;8.55;6.43;;;22.20;94.00;;;;;;4991262;28;20034;-69
2021/07/13 00:10:52;;;;;;;8.05;6.60;;;22.20;94.00;;;;;;4991239;28;20034;-69
2021/07/13 00:13:18;;;;;;;7.22;6.50;;;22.20;94.10;;;;;;4992011;28;20030;-69
2021/07/13 00:15:44;;;;;;;8.95;5.85;;;22.20;94.10;;;;;;4991747;28;20034;-69
2021/07/13 00:18:12;;;;;;;6.85;6.15;;;22.10;94.10;;;;;;4989370;28;20437;-68
2021/07/13 00:20:38;;;;;;;7.35;6.65;;;22.10;94.20;;;;;;4994801;28;20050;-69
2021/07/13 00:23:04;;;;;;;7.18;6.47;;;22.10;94.30;;;;;;5011074;28;20037;-69
2021/07/13 00:25:32;;;;;;;7.00;6.30;;;22.10;94.40;;;;;;5011292;28;20032;-70
2021/07/13 00:27:57;;;;;;;6.95;6.25;;;22.10;94.40;;;;;;5010486;28;20397;-69
2021/07/13 00:30:24;;;;;;;7.30;6.18;;;22.10;94.40;;;;;;5010797;28;20099;-69
2021/07/13 00:32:50;;;;;;;7.68;6.47;;;22.10;94.40;;;;;;5009796;28;20029;-69
2021/07/13 00:35:17;;;;;;;8.25;6.45;;;22.10;94.40;;;;;;5010985;28;20041;-69
2021/07/13 00:37:43;;;;;;;7.53;6.10;;;22.10;94.50;;;;;;5010151;28;20088;-69
2021/07/13 00:40:11;;;;;;;7.22;6.53;;;22.10;94.50;;;;;;5010465;28;20395;-68
2021/07/13 00:42:37;;;;;;;7.13;6.53;;;22.10;94.50;;;;;;5010886;28;20030;-69
2021/07/13 00:45:05;;;;;;;7.32;6.63;;;22.10;94.50;;;;;;5010906;28;20053;-70
2021/07/13 00:47:31;;;;;;;9.65;7.07;;;22.10;94.50;;;;;;5004164;28;20033;-69
2021/07/13 00:49:59;;;;;;;8.43;6.57;;;22.10;94.60;;;;;;5004858;28;20480;-70
2021/07/13 00:52:26;;;;;;;8.77;6.63;;;22.10;94.60;;;;;;4986960;28;20042;-69
2021/07/13 00:54:52;;;;;;;9.32;7.05;;;22.00;94.60;;;;;;4993371;28;20707;-70
2021/07/13 00:57:19;;;;;;;7.82;6.80;;;22.00;94.80;;;;;;5010013;28;20065;-69
2021/07/13 00:59:45;;;;;;;9.05;6.43;;;22.00;94.80;;;;;;5010275;28;20037;-69
2021/07/13 01:02:14;;;;;;;8.15;6.88;;;22.00;94.80;;;;;;5010957;28;20100;-69
2021/07/13 01:04:44;;;;;;;7.97;6.88;;;22.10;94.90;;;;;;4998123;28;20062;-69
2021/07/13 01:07:18;;;;;;;7.38;6.25;;;22.10;94.90;;;;;;4990679;28;20030;-69
2021/07/13 01:09:46;;;;;;;13.07;7.22;;;22.00;94.80;;;;;;4992200;28;20023;-69
2021/07/13 01:12:29;;;;;;;8.88;7.97;;;22.00;94.80;;;;;;4994936;28;20381;-69
2021/07/13 01:14:57;;;;;;;7.78;6.45;;;22.10;94.90;;;;;;4994952;28;20030;-69
2021/07/13 01:17:34;;;;;;;9.52;6.70;;;22.10;94.90;;;;;;4994126;28;20042;-69
2021/07/13 01:20:35;;;;;;;7.47;6.70;;;22.00;95.00;;;;;;4990598;28;20031;-69
2021/07/13 01:23:10;;;;;;;11.13;7.05;;;22.00;95.00;;;;;;4995450;28;20022;-69
2021/07/13 01:25:46;;;;;;;7.70;6.47;;;22.00;95.10;;;;;;4994773;28;20027;-69
2021/07/13 01:28:17;;;;;;;7.63;6.78;;;22.00;95.00;;;;;;4994102;28;20113;-68
2021/07/13 01:30:47;;;;;;;7.28;6.47;;;22.00;95.10;;;;;;4994019;28;20038;-69
2021/07/13 01:33:19;;;;;;;8.98;6.40;;;22.00;95.10;;;;;;4994841;28;20080;-69
2021/07/13 01:36:00;;;;;;;9.23;7.20;;;22.00;95.10;;;;;;4994882;28;20713;-69
2021/07/13 01:38:28;;;;;;;7.87;7.03;;;22.00;95.20;;;;;;4992925;28;20030;-68
2021/07/13 01:41:00;;;;;;;7.97;6.88;;;22.00;95.20;;;;;;4994137;28;20832;-69
2021/07/13 01:43:27;;;;;;;8.35;6.57;;;22.00;95.20;;;;;;4993460;28;20045;-70
2021/07/13 01:45:53;;;;;;;8.57;7.20;;;22.00;95.20;;;;;;4994442;28;20105;-69
2021/07/13 01:48:20;;;;;;;7.93;7.00;;;22.00;95.20;;;;;;5004920;28;20041;-69
2021/07/13 01:50:50;;;;;;;10.57;7.88;;;22.00;95.10;;;;;;4998450;28;20424;-69
2021/07/13 01:53:17;;;;;;;9.02;7.57;;;22.00;95.20;;;;;;5009958;28;20108;-69
2021/07/13 01:55:45;;;;;;;9.93;7.10;;;22.00;95.20;;;;;;5004448;28;20633;-69
2021/07/13 01:58:12;;;;;;;9.80;7.07;;;22.00;95.20;;;;;;4992892;28;20109;-70
2021/07/13 02:00:40;;;;;;;7.60;6.68;;;21.90;95.30;;;;;;4991752;28;20034;-69
2021/07/13 02:03:06;;;;;;;9.38;7.32;;;21.90;95.40;;;;;;4993692;28;20038;-69
2021/07/13 02:05:34;;;;;;;10.23;7.53;;;21.90;95.40;;;;;;5013521;28;20030;-69
2021/07/13 02:08:04;;;;;;;8.35;7.45;;;21.90;95.40;;;;;;5013160;28;20116;-69
2021/07/13 02:10:30;;;;;;;8.57;6.80;;;21.90;95.40;;;;;;5013142;28;20040;-69
2021/07/13 02:12:57;;;;;;;8.68;7.78;;;21.90;95.40;;;;;;5013779;28;20026;-69
2021/07/13 02:15:22;;;;;;;8.63;7.32;;;21.80;95.40;;;;;;5013612;28;20100;-69
2021/07/13 02:17:51;;;;;;;9.60;7.35;;;21.80;95.40;;;;;;5012901;28;20101;-69
2021/07/13 02:20:19;;;;;;;8.70;7.30;;;21.80;95.60;;;;;;5009102;28;20534;-69
2021/07/13 02:22:46;;;;;;;8.60;7.72;;;21.80;95.60;;;;;;4993759;28;20040;-68
2021/07/13 02:25:15;;;;;;;8.07;6.70;;;21.70;95.60;;;;;;4993698;28;20030;-69
2021/07/13 02:28:01;;;;;;;7.65;6.75;;;21.70;95.60;;;;;;4991915;28;20069;-69
2021/07/13 02:30:29;;;;;;;7.63;6.75;;;21.70;95.50;;;;;;4991859;28;20038;-69
2021/07/13 02:33:02;;;;;;;9.18;8.05;;;21.70;95.60;;;;;;4993567;28;20395;-69
2021/07/13 02:35:39;;;;;;;10.35;7.85;;;21.70;95.60;;;;;;4993516;28;20034;-69
2021/07/13 02:38:07;;;;;;;9.60;7.10;;;21.70;95.60;;;;;;4992796;28;20038;-70
2021/07/13 02:40:34;;;;;;;8.50;7.35;;;21.60;95.70;;;;;;4992721;28;20026;-69
2021/07/13 02:43:01;;;;;;;10.57;7.55;;;21.60;95.70;;;;;;4993443;28;20045;-69
2021/07/13 02:45:27;;;;;;;8.30;7.38;;;21.60;95.70;;;;;;4993320;28;20033;-69
2021/07/13 02:47:55;;;;;;;8.52;7.35;;;21.50;95.80;;;;;;4998038;28;20026;-69
2021/07/13 02:50:22;;;;;;;9.50;7.82;;;21.50;95.90;;;;;;5010067;28;20557;-69
2021/07/13 02:52:49;;;;;;;9.45;7.15;;;21.50;95.90;;;;;;4997618;28;20140;-68
2021/07/13 02:55:22;;;;;;;9.73;7.38;;;21.50;95.90;;;;;;4998508;28;20030;-67
2021/07/13 02:57:50;;;;;;;9.48;7.30;;;21.50;96.00;;;;;;4993632;28;20026;-67
2021/07/13 03:00:17;;;;;;;9.73;7.57;;;21.50;96.00;;;;;;4996892;28;20037;-69
2021/07/13 03:02:46;;;;;;;9.00;8.07;;;21.50;96.10;;;;;;5005934;28;20022;-67
2021/07/13 03:05:14;;;;;;;8.40;7.43;;;21.40;96.10;;;;;;5003095;28;20439;-68
2021/07/13 03:07:41;;;;;;;9.45;7.47;;;21.40;96.10;;;;;;5009626;28;20088;-69
2021/07/13 03:10:07;;;;;;;9.23;8.32;;;21.40;96.00;;;;;;5000529;28;20030;-67
2021/07/13 03:12:34;;;;;;;12.48;9.02;;;21.40;96.10;;;;;;5009690;28;20033;-72
2021/07/13 03:15:02;;;;;;;8.60;7.63;;;21.40;96.20;;;;;;5013888;28;20662;-67
2021/07/13 03:17:28;;;;;;;8.68;7.53;;;21.40;96.30;;;;;;5011935;28;20121;-67
2021/07/13 03:19:54;;;;;;;10.88;8.13;;;21.40;96.20;;;;;;5012052;28;20526;-67
2021/07/13 03:22:33;;;;;;;9.27;8.07;;;21.30;96.20;;;;;;5012223;28;20030;-68
2021/07/13 03:25:01;;;;;;;10.70;8.10;;;21.30;96.20;;;;;;5012511;28;20034;-67
2021/07/13 03:27:28;;;;;;;9.70;8.70;;;21.30;96.20;;;;;;4995264;28;20030;-66
2021/07/13 03:29:56;;;;;;;13.00;8.95;;;21.30;96.30;;;;;;5011936;28;20446;-67
2021/07/13 03:32:23;;;;;;;10.27;8.85;;;21.30;96.40;;;;;;5011610;28;20044;-67
2021/07/13 03:34:50;;;;;;;12.90;8.25;;;21.30;96.40;;;;;;5012287;28;20033;-67
2021/07/13 03:37:17;;;;;;;8.90;7.97;;;21.30;96.40;;;;;;5011467;28;20071;-68
2021/07/13 03:39:43;;;;;;;10.00;8.25;;;21.30;96.40;;;;;;5011342;28;20034;-67
2021/07/13 03:42:09;;;;;;;10.27;8.85;;;21.30;96.40;;;;;;5010797;28;20030;-69
2021/07/13 03:44:35;;;;;;;10.82;8.82;;;21.20;96.40;;;;;;5012134;28;20088;-69
2021/07/13 03:47:01;;;;;;;12.65;8.93;;;21.20;96.50;;;;;;5004436;28;20524;-67
2021/07/13 03:49:28;;;;;;;13.05;9.73;;;21.20;96.70;;;;;;5001747;28;20053;-68
2021/07/13 03:51:54;;;;;;;11.13;8.23;;;21.20;96.70;;;;;;5009357;28;20048;-69
2021/07/13 03:54:21;;;;;;;11.32;9.07;;;21.20;96.70;;;;;;5011874;28;20105;-66
2021/07/13 03:56:49;;;;;;;11.52;8.77;;;21.20;96.70;;;;;;5011932;28;20484;-68
2021/07/13 03:59:15;;;;;;;11.18;9.20;;;21.20;96.70;;;;;;5010858;28;20038;-67
2021/07/13 04:01:42;;;;;;;10.30;9.13;;;21.20;96.70;;;;;;4998790;28;20472;-66
2021/07/13 04:04:07;;;;;;;14.80;9.80;;;21.20;96.70;;;;;;4992489;28;20097;-67
2021/07/13 04:06:34;;;;;;;10.95;9.15;;;21.20;96.70;;;;;;4992304;28;20018;-67
2021/07/13 04:09:01;;;;;;;13.75;9.55;;;21.30;96.70;;;;;;4991707;28;20045;-67
2021/07/13 04:11:27;;;;;;;11.52;9.25;;;21.30;96.70;;;;;;4991730;28;20428;-68
2021/07/13 04:13:52;;;;;;;10.75;9.65;;;21.30;96.70;;;;;;4989415;28;20034;-69
2021/07/13 04:16:18;;;;;;;14.55;10.40;;;21.30;96.70;;;;;;4989546;28;20037;-69
2021/07/13 04:18:44;;;;;;;11.73;9.80;;;21.30;96.80;;;;;;5008776;28;20484;-69
2021/07/13 04:21:10;;;;;;;14.27;10.77;;;21.30;96.70;;;;;;5010337;28;20030;-69
2021/07/13 04:23:36;;;;;;;16.58;10.98;;;21.30;96.80;;;;;;5011536;28;20048;-68
2021/07/13 04:26:06;;;;;;;11.57;9.88;;;21.30;96.80;;;;;;5011486;28;20033;-68
2021/07/13 04:28:32;;;;;;;14.23;10.23;;;21.30;96.70;;;;;;5009492;28;20065;-69
2021/07/13 04:30:59;;;;;;;12.02;9.57;;;21.40;96.70;;;;;;5010897;28;20065;-68
2021/07/13 04:33:25;;;;;;;15.18;11.32;;;21.40;96.70;;;;;;5011232;28;20175;-69
2021/07/13 04:35:51;;;;;;;14.10;11.30;;;21.40;96.70;;;;;;5011361;28;20587;-69
2021/07/13 04:38:17;;;;;;;13.68;10.10;;;21.40;96.70;;;;;;5010666;28;20056;-70
2021/07/13 04:40:42;;;;;;;14.70;11.30;;;21.40;96.60;;;;;;5010881;28;20045;-69
2021/07/13 04:43:08;;;;;;;11.20;9.90;;;21.50;96.60;;;;;;5011466;28;20026;-68
2021/07/13 04:45:34;;;;;;;11.57;10.38;;;21.50;96.50;;;;;;5011149;28;20109;-67
2021/07/13 04:47:59;;;;;;;13.50;10.23;;;21.60;96.50;;;;;;4995147;28;20034;-68
2021/07/13 04:50:25;;;;;;;11.32;10.13;;;21.60;96.40;;;;;;4990979;28;20076;-69
2021/07/13 04:52:51;;;;;;;16.77;11.00;;;21.60;96.40;;;;;;5004365;28;20093;-68
2021/07/13 04:55:17;;;;;;;13.60;11.00;;;21.70;96.30;;;;;;4990245;28;20043;-68
2021/07/13 04:57:46;;;;;;;12.00;9.95;;;21.70;96.30;;;;;;4990564;28;20401;-66
2021/07/13 05:00:13;;;;;;;12.30;10.18;;;21.70;96.30;;;;;;4991138;28;20034;-68
2021/07/13 05:02:39;;;;;;;14.13;10.43;;;21.60;96.20;;;;;;4998795;28;20500;-68
2021/07/13 05:05:07;;;;;;;12.85;10.25;;;21.60;96.20;;;;;;5010968;28;20034;-67
2021/07/13 05:07:32;;;;;;;15.27;10.98;;;21.70;96.30;;;;;;5010545;28;20062;-67
2021/07/13 05:09:58;;;;;;;13.27;10.93;;;21.70;96.30;;;;;;5010742;28;20066;-68
2021/07/13 05:12:24;;;;;;;13.27;10.35;;;21.80;96.30;;;;;;5010720;28;20479;-68
2021/07/13 05:14:50;;;;;;;11.75;10.57;;;21.80;96.20;;;;;;5009234;28;20038;-68
2021/07/13 05:17:15;;;;;;;11.60;10.43;;;21.80;96.10;;;;;;5009770;28;20095;-68
2021/07/13 05:19:44;;;;;;;11.55;10.32;;;21.90;96.10;;;;;;5010518;28;20037;-68
2021/07/13 05:22:10;;;;;;;12.93;11.00;;;21.90;96.10;;;;;;5010826;28;20030;-68
2021/07/13 05:24:36;;;;;;;13.20;11.05;;;21.90;96.00;;;;;;5010864;28;20364;-69
2021/07/13 05:27:03;;;;;;;12.32;10.80;;;21.90;95.90;;;;;;5010514;28;20040;-68
2021/07/13 05:29:29;;;;;;;17.50;11.50;;;22.00;95.80;;;;;;5011094;28;20431;-69
2021/07/13 05:31:54;;;;;;;17.95;10.75;;;22.00;95.70;;;;;;5010689;28;20255;-69
2021/07/13 05:34:20;;;;;;;13.40;10.45;;;22.10;95.70;;;;;;5010790;28;20041;-68
2021/07/13 05:36:46;;;;;;;12.77;11.02;;;22.10;95.60;;;;;;5009235;28;20037;-68
2021/07/13 05:39:11;;;;;;;12.93;11.30;;;22.20;95.50;;;;;;5009543;28;20026;-68
2021/07/13 05:41:38;;;;;;;13.88;11.38;;;22.20;95.40;;;;;;5010668;28;20541;-68
2021/07/13 05:44:06;;;;;;;12.07;10.65;;;22.20;95.40;;;;;;5009357;28;20026;-67
2021/07/13 05:46:33;;;;;;;13.70;11.27;;;22.30;95.30;;;;;;5008843;28;20018;-68
2021/07/13 05:48:59;;;;;;;12.48;11.18;;;22.30;95.10;;;;;;5009302;28;20092;-69
2021/07/13 05:51:25;;;;;;;15.38;10.40;;;22.30;95.10;;;;;;5007894;28;20041;-67
2021/07/13 05:53:50;;;;;;;15.13;10.55;;;22.40;95.10;;;;;;5010622;28;20062;-68
2021/07/13 05:56:16;;;;;;;12.75;11.35;;;22.50;95.00;;;;;;5011387;28;20062;-68
2021/07/13 05:58:42;;;;;;;12.50;10.35;;;22.50;94.90;;;;;;5013563;28;20061;-67
2021/07/13 06:01:07;;;;;;;11.68;9.60;;;22.60;94.80;;;;;;5009260;28;20045;-68
2021/07/13 06:03:34;;;;;;;11.40;10.38;;;22.60;94.70;;;;;;5013990;28;20038;-69
2021/07/13 06:06:00;;;;;;;13.18;10.40;;;22.70;94.80;;;;;;4995344;28;20077;-68
2021/07/13 06:08:26;;;;;;;11.43;10.05;;;22.80;94.50;;;;;;4993853;28;20165;-69
2021/07/13 06:10:52;;;;;;;10.82;9.73;;;22.80;94.40;;;;;;4993813;28;20030;-69
2021/07/13 06:13:19;;;;;;;11.38;10.18;;;22.80;94.40;;;;;;4991596;28;20400;-67
2021/07/13 06:15:46;;;;;;;12.88;11.15;;;22.80;94.40;;;;;;4994374;28;20393;-67
2021/07/13 06:18:15;;;;;;;11.68;10.23;;;22.80;94.30;;;;;;4993482;28;20041;-68
2021/07/13 06:20:41;;;;;;;12.07;10.80;;;22.80;94.20;;;;;;4993744;28;20023;-68
2021/07/13 06:23:07;;;;;;;11.85;10.27;;;22.80;94.30;;;;;;4992952;28;20065;-67
2021/07/13 06:25:33;;;;;;;13.02;9.45;;;22.80;94.30;;;;;;4992889;28;20081;-68
2021/07/13 06:27:58;;;;;;;12.60;10.20;;;22.90;94.30;;;;;;4993371;28;20488;-68
2021/07/13 06:30:24;;;;;;;10.93;9.82;;;22.90;94.10;;;;;;4993563;28;20104;-70
2021/07/13 06:32:50;;;;;;;12.27;11.07;;;23.00;93.80;;;;;;4992419;28;20034;-68
2021/07/13 06:35:15;;;;;;;11.63;10.43;;;23.10;93.80;;;;;;5007812;28;20069;-67
2021/07/13 06:37:43;;;;;;;11.43;10.27;;;23.20;93.60;;;;;;5011137;28;20036;-68
2021/07/13 06:40:09;;;;;;;11.13;10.02;;;23.30;93.50;;;;;;5012148;28;20087;-68
2021/07/13 06:42:35;;;;;;;10.32;9.13;;;23.40;93.30;;;;;;5014946;28;20030;-69
2021/07/13 06:45:01;;;;;;;11.75;9.93;;;23.50;93.10;;;;;;5013132;28;20474;-69
2021/07/13 06:47:26;;;;;;;9.57;8.65;;;23.50;92.90;;;;;;5005903;28;20048;-69
2021/07/13 06:49:52;;;;;;;10.70;9.63;;;23.60;92.80;;;;;;5006296;28;20513;-70
2021/07/13 06:52:18;;;;;;;11.45;10.13;;;23.70;92.80;;;;;;4993588;28;20038;-70
2021/07/13 06:54:43;;;;;;;10.68;9.57;;;23.60;92.50;;;;;;4993971;28;20154;-69
2021/07/13 06:57:09;;;;;;;12.18;10.95;;;23.60;92.50;;;;;;5012098;28;20033;-69
2021/07/13 06:59:35;;;;;;;12.02;10.23;;;23.60;92.50;;;;;;5011593;28;20030;-68
2021/07/13 07:02:01;;;;;;;10.65;9.57;;;23.50;92.50;;;;;;5006207;28;20022;-70
2021/07/13 07:04:27;;;;;;;10.77;9.68;;;23.50;92.50;;;;;;5006577;28;20084;-70
2021/07/13 07:06:53;;;;;;;10.57;9.52;;;23.50;92.50;;;;;;4991893;28;20026;-69
2021/07/13 07:09:20;;;;;;;10.95;9.85;;;23.50;92.50;;;;;;5002384;28;20030;-69
2021/07/13 07:11:46;;;;;;;11.45;10.35;;;23.50;92.40;;;;;;5012264;28;20087;-69
2021/07/13 07:14:11;;;;;;;11.50;10.50;;;23.50;92.30;;;;;;5008456;28;20037;-69
2021/07/13 07:16:37;;;;;;;10.48;9.45;;;23.50;92.30;;;;;;5010460;28;20030;-69
2021/07/13 07:19:03;;;;;;;11.35;10.25;;;23.60;92.30;;;;;;4991503;28;20202;-70
2021/07/13 07:21:29;;;;;;;11.48;10.27;;;23.60;92.10;;;;;;4993068;28;20023;-69
2021/07/13 07:23:55;;;;;;;10.85;9.80;;;23.60;92.10;;;;;;4992734;28;20124;-69
2021/07/13 07:26:20;;;;;;;13.55;10.43;;;23.60;91.90;;;;;;4992774;28;20223;-70
2021/07/13 07:28:46;;;;;;;12.50;10.02;;;23.60;91.60;;;;;;4991360;28;20030;-69
2021/07/13 07:31:14;;;;;;;10.73;9.68;;;23.60;91.50;;;;;;4991470;28;20346;-70
2021/07/13 07:33:40;;;;;;;10.75;9.65;;;23.70;91.60;;;;;;4993602;28;20022;-69
2021/07/13 07:36:06;;;;;;;10.93;9.80;;;23.70;91.70;;;;;;5011855;28;20038;-69
2021/07/13 07:38:32;;;;;;;10.95;9.85;;;23.80;91.50;;;;;;5011134;28;20030;-69
2021/07/13 07:40:57;;;;;;;11.02;9.93;;;23.80;91.30;;;;;;5010225;28;20082;-69
2021/07/13 07:43:23;;;;;;;10.77;9.70;;;23.90;91.30;;;;;;5010736;28;20029;-69
2021/07/13 07:45:49;;;;;;;10.82;9.25;;;23.90;91.30;;;;;;5010669;28;20033;-70
2021/07/13 07:48:14;;;;;;;11.07;9.98;;;24.00;91.20;;;;;;4999381;28;20061;-69
2021/07/13 07:50:40;;;;;;;11.30;10.07;;;24.00;91.10;;;;;;5008305;28;20117;-69
2021/07/13 07:53:06;;;;;;;10.88;9.77;;;24.00;91.00;;;;;;4987614;28;20065;-70
2021/07/13 07:55:32;;;;;;;10.93;9.80;;;24.00;90.60;;;;;;4999775;28;20037;-70
2021/07/13 07:57:59;;;;;;;11.55;10.35;;;24.10;90.50;;;;;;5011111;28;20029;-69
2021/07/13 08:00:25;;;;;;;11.02;9.63;;;24.10;90.40;;;;;;5007126;28;20037;-69
2021/07/13 08:02:52;;;;;;;10.43;9.43;;;24.10;90.50;;;;;;5000611;28;20033;-69
2021/07/13 08:05:18;;;;;;;11.30;10.20;;;24.10;90.50;;;;;;5003402;28;20065;-69
2021/07/13 08:07:45;;;;;;;10.80;9.80;;;24.10;90.40;;;;;;5010867;28;20087;-70
2021/07/13 08:10:13;;;;;;;12.20;9.90;;;24.20;90.30;;;;;;4993396;28;20034;-68
2021/07/13 08:12:39;;;;;;;10.88;9.88;;;24.20;90.20;;;;;;4989293;28;20125;-70
2021/07/13 08:15:06;;;;;;;12.38;10.57;;;24.30;89.90;;;;;;4990699;28;20089;-69
2021/07/13 08:17:32;;;;;;;11.43;10.25;;;24.30;89.70;;;;;;4999157;28;20440;-70
2021/07/13 08:19:58;;;;;;;11.38;10.07;;;24.40;89.80;;;;;;5010596;28;20034;-70
2021/07/13 08:22:23;;;;;;;11.00;9.93;;;24.40;90.00;;;;;;5011072;28;20026;-70
2021/07/13 08:24:49;;;;;;;10.65;9.65;;;24.50;90.10;;;;;;5009696;28;20056;-70
2021/07/13 08:27:15;;;;;;;10.95;9.85;;;24.60;88.70;;;;;;5010962;28;20044;-70
2021/07/13 08:29:42;;;;;;;10.43;9.43;;;24.70;89.30;;;;;;5010589;28;20384;-70
2021/07/13 08:32:08;;;;;;;10.75;9.65;;;24.70;89.00;;;;;;5011012;28;20029;-69
2021/07/13 08:34:34;;;;;;;10.57;9.43;;;24.80;89.00;;;;;;5003155;28;20026;-69
2021/07/13 08:37:02;;;;;;;11.38;10.38;;;24.80;87.40;;;;;;4989754;28;20050;-68
2021/07/13 08:39:28;;;;;;;11.65;10.45;;;24.90;87.00;;;;;;4990448;28;20022;-68
2021/07/13 08:41:53;;;;;;;11.98;10.85;;;24.90;86.60;;;;;;4991523;28;20066;-68
2021/07/13 08:44:19;;;;;;;11.13;10.13;;;25.00;86.60;;;;;;4991557;28;20157;-68
2021/07/13 08:46:45;;;;;;;10.30;9.40;;;25.00;86.90;;;;;;4992622;28;20030;-69
2021/07/13 08:49:12;;;;;;;11.25;10.10;;;25.10;87.20;;;;;;4998978;28;20053;-68
2021/07/13 08:51:40;;;;;;;10.73;9.73;;;25.20;85.90;;;;;;4998268;28;20042;-68
2021/07/13 08:54:06;;;;;;;11.73;9.68;;;25.40;86.40;;;;;;5009670;28;20045;-68
2021/07/13 08:56:33;;;;;;;10.77;9.77;;;25.60;84.90;;;;;;4995145;28;20024;-68
2021/07/13 08:59:01;;;;;;;9.45;8.38;;;25.70;83.70;;;;;;4989797;28;20034;-69
2021/07/13 09:01:26;;;;;;;9.60;8.70;;;25.80;82.10;;;;;;4991076;28;20504;-68
2021/07/13 09:03:57;;;;;;;10.10;9.10;;;25.90;81.70;;;;;;4997405;28;20030;-69
2021/07/13 09:06:26;;;;;;;9.55;8.65;;;25.90;80.10;;;;;;5011427;28;20425;-68
2021/07/13 09:08:52;;;;;;;10.38;9.27;;;26.00;81.00;;;;;;5005669;28;20535;-70
2021/07/13 09:11:21;;;;;;;9.98;8.45;;;26.10;81.70;;;;;;5010864;28;20532;-69
2021/07/13 09:13:51;;;;;;;8.68;7.88;;;26.10;80.00;;;;;;5010374;28;20038;-68
2021/07/13 09:16:30;;;;;;;8.90;8.10;;;26.20;79.50;;;;;;5009727;28;20432;-69
2021/07/13 09:18:58;;;;;;;9.80;8.38;;;26.20;80.10;;;;;;5008413;28;20488;-69
2021/07/13 09:21:33;;;;;;;9.15;8.25;;;26.20;80.10;;;;;;4997928;28;20026;-70
2021/07/13 09:24:03;;;;;;;8.57;7.85;;;26.20;79.70;;;;;;4990990;28;20037;-69
2021/07/13 09:26:35;;;;;;;9.18;8.38;;;26.20;80.40;;;;;;4991262;28;20396;-69
2021/07/13 09:29:01;;;;;;;9.82;8.93;;;26.10;80.00;;;;;;4989577;28;20028;-70
2021/07/13 09:31:26;;;;;;;8.68;7.97;;;26.00;78.90;;;;;;4993634;28;20022;-70
2021/07/13 09:33:52;;;;;;;8.27;7.53;;;26.10;79.50;;;;;;4994821;28;20065;-69
2021/07/13 09:36:19;;;;;;;8.88;8.07;;;26.10;78.60;;;;;;4994684;28;20064;-69
2021/07/13 09:38:48;;;;;;;8.40;7.55;;;26.20;78.00;;;;;;4993355;28;20048;-70
2021/07/13 09:41:17;;;;;;;8.63;7.82;;;26.20;78.10;;;;;;4994411;28;20481;-70
2021/07/13 09:44:00;;;;;;;8.85;8.05;;;26.20;77.30;;;;;;4994610;28;20027;-69
2021/07/13 09:46:44;;;;;;;9.88;8.15;;;26.10;77.30;;;;;;4995659;28;20041;-69
2021/07/13 09:49:15;;;;;;;8.32;7.55;;;26.10;77.80;;;;;;5004240;28;20032;-69
2021/07/13 09:51:44;;;;;;;8.65;7.85;;;26.10;78.20;;;;;;4999396;28;20041;-69
2021/07/13 09:54:34;;;;;;;8.30;7.60;;;26.20;78.30;;;;;;4993633;28;20497;-68
2021/07/13 09:57:02;;;;;;;8.38;7.68;;;26.20;76.80;;;;;;5013548;28;20052;-69
2021/07/13 09:59:28;;;;;;;8.65;7.82;;;26.20;77.40;;;;;;5013078;28;20030;-69
2021/07/13 10:01:54;;;;;;;8.10;7.40;;;26.30;77.90;;;;;;5012612;28;20029;-69
2021/07/13 10:04:21;;;;;;;7.40;6.80;;;26.40;78.30;;;;;;5003796;28;20113;-69
2021/07/13 10:06:49;;;;;;;7.95;7.25;;;26.60;77.80;;;;;;4994221;28;20023;-69
2021/07/13 10:09:15;;;;;;;7.68;6.88;;;26.60;77.10;;;;;;4991596;28;20096;-69
2021/07/13 10:11:42;;;;;;;7.72;6.93;;;26.80;76.90;;;;;;4994094;28;20030;-69
2021/07/13 10:14:11;;;;;;;7.22;6.57;;;26.90;75.70;;;;;;4990736;28;20026;-69
2021/07/13 10:16:37;;;;;;;7.03;6.43;;;27.00;74.40;;;;;;4991839;28;20026;-69
2021/07/13 10:19:07;;;;;;;8.95;7.53;;;27.10;75.50;;;;;;4992628;28;20408;-70
2021/07/13 10:21:33;;;;;;;8.48;7.78;;;27.10;74.80;;;;;;5005421;28;20092;-70
2021/07/13 10:24:02;;;;;;;8.40;7.60;;;27.20;75.10;;;;;;5013348;28;20037;-69
2021/07/13 10:26:48;;;;;;;7.13;6.43;;;27.30;75.50;;;;;;5014246;28;20034;-70
2021/07/13 10:29:32;;;;;;;8.10;6.40;;;27.30;73.20;;;;;;5012372;28;20030;-69
2021/07/13 10:32:03;;;;;;;7.55;6.88;;;27.30;73.90;;;;;;5013470;28;20037;-70
2021/07/13 10:34:48;;;;;;;;;;;27.30;73.40;;;;;;5013936;28;20065;-70
2021/07/13 10:37:33;;;;;;;7.75;7.05;;;27.20;71.70;;;;;;5011585;28;19906;-69
2021/07/13 10:40:09;;;;;;;6.70;6.10;;;27.20;73.00;;;;;;5013223;28;20105;-69
2021/07/13 10:42:44;;;;;;;7.30;6.60;;;27.20;72.90;;;;;;5013158;28;20507;-69
2021/07/13 10:45:29;;;;;;;7.43;6.72;;;27.20;73.30;;;;;;5011926;28;20033;-69
2021/07/13 10:48:06;;;;;;;7.18;6.20;;;27.20;73.30;;;;;;5005215;28;20026;-69
2021/07/13 10:50:40;;;;;;;6.78;6.18;;;27.10;71.70;;;;;;5010786;28;20121;-69
2021/07/13 10:53:29;;;;;;;7.78;7.18;;;27.10;72.10;;;;;;4991070;28;20587;-70
2021/07/13 10:55:58;;;;;;;8.05;7.32;;;27.00;72.50;;;;;;5003817;28;20044;-70
2021/07/13 10:58:26;;;;;;;7.82;7.13;;;27.10;72.90;;;;;;5011347;28;20130;-69
2021/07/13 11:00:56;;;;;;;7.20;6.55;;;27.00;72.60;;;;;;5012756;28;20034;-69
2021/07/13 11:03:31;;;;;;;7.22;6.63;;;27.00;72.60;;;;;;5011893;28;20030;-69
2021/07/13 11:05:58;;;;;;;9.65;6.90;;;27.00;72.60;;;;;;5016515;28;20026;-69
2021/07/13 11:08:52;;;;;;;7.03;6.32;;;27.10;72.40;;;;;;5014279;28;20121;-70
2021/07/13 11:11:27;;;;;;;7.28;6.68;;;27.20;71.70;;;;;;5012906;28;20048;-70
2021/07/13 11:13:57;;;;;;;8.90;7.40;;;27.20;70.50;;;;;;5010588;28;20041;-70
2021/07/13 11:16:26;;;;;;;6.70;6.10;;;27.20;70.60;;;;;;5012990;28;20091;-70
2021/07/13 11:18:52;;;;;;;7.70;7.00;;;27.20;70.70;;;;;;5011880;28;20500;-69
2021/07/13 11:21:31;;;;;;;7.70;6.88;;;27.20;71.10;;;;;;5003457;28;20547;-69
2021/07/13 11:24:03;;;;;;;7.60;6.78;;;27.20;71.20;;;;;;4993145;28;20058;-69
2021/07/13 11:26:29;;;;;;;7.10;6.40;;;27.20;71.20;;;;;;4995127;28;20037;-70
2021/07/13 11:28:57;;;;;;;7.82;7.03;;;27.20;70.80;;;;;;5002724;28;20113;-70
2021/07/13 11:31:27;;;;;;;7.60;6.90;;;27.40;72.60;;;;;;4998606;28;20026;-70
2021/07/13 11:33:56;;;;;;;7.03;6.37;;;27.60;72.10;;;;;;5006106;28;20029;-70
2021/07/13 11:36:30;;;;;;;7.90;7.20;;;27.90;70.40;;;;;;4995386;28;20589;-70
2021/07/13 11:38:58;;;;;;;7.75;6.82;;;28.20;70.10;;;;;;5008761;28;20034;-69
2021/07/13 11:41:26;;;;;;;6.72;6.13;;;28.20;69.60;;;;;;5011043;28;20022;-70
2021/07/13 11:43:54;;;;;;;7.45;6.82;;;28.10;68.80;;;;;;5004153;28;20057;-69
2021/07/13 11:46:25;;;;;;;7.10;6.40;;;28.00;68.70;;;;;;4994288;28;20444;-70
2021/07/13 11:48:59;;;;;;;7.05;6.45;;;28.80;68.30;;;;;;4999402;28;20116;-69
2021/07/13 11:51:35;;;;;;;8.57;7.13;;;29.70;65.90;;;;;;5000846;28;20046;-71
2021/07/13 11:54:06;;;;;;;6.18;5.63;;;30.10;65.20;;;;;;4989580;28;20033;-70
2021/07/13 11:56:34;;;;;;;6.45;5.85;;;30.00;64.40;;;;;;5008069;28;20049;-69
2021/07/13 11:59:00;;;;;;;6.82;6.07;;;29.70;64.70;;;;;;5010970;28;20025;-69
2021/07/13 12:01:28;;;;;;;6.88;6.15;;;29.40;65.00;;;;;;5005440;28;20026;-69
2021/07/13 12:03:59;;;;;;;7.10;6.45;;;29.10;64.90;;;;;;5005894;28;20080;-70
2021/07/13 12:06:25;;;;;;;6.38;5.78;;;28.60;65.40;;;;;;4993954;28;20237;-70
2021/07/13 12:09:09;;;;;;;6.28;5.68;;;28.30;65.50;;;;;;4994153;28;20151;-70
2021/07/13 12:11:37;;;;;;;5.90;5.40;;;27.90;66.20;;;;;;5011592;28;20536;-70
2021/07/13 12:14:04;;;;;;;5.85;5.28;;;27.70;67.20;;;;;;5011548;28;20117;-70
2021/07/13 12:16:33;;;;;;;5.63;5.13;;;27.40;68.30;;;;;;5010633;28;20109;-69
2021/07/13 12:19:05;;;;;;;6.18;5.60;;;27.20;67.30;;;;;;4993911;28;20038;-70
2021/07/13 12:21:32;;;;;;;6.00;5.45;;;27.00;68.10;;;;;;4992031;28;20096;-69
2021/07/13 12:24:00;;;;;;;6.18;5.57;;;26.90;68.70;;;;;;4991495;28;20077;-69
2021/07/13 12:26:36;;;;;;;5.32;4.90;;;26.80;69.10;;;;;;4991853;28;20030;-70
2021/07/13 12:29:11;;;;;;;6.70;5.32;;;26.70;69.50;;;;;;4989404;28;20072;-70
2021/07/13 12:31:44;;;;;;;5.80;5.30;;;26.70;69.20;;;;;;4990741;28;20451;-69
2021/07/13 12:34:22;;;;;;;5.55;4.63;;;26.60;70.10;;;;;;4992236;28;20113;-70
2021/07/13 12:37:01;;;;;;;5.95;5.45;;;26.60;69.60;;;;;;5002179;28;20037;-69
2021/07/13 12:39:27;;;;;;;6.05;5.55;;;26.60;69.90;;;;;;5000156;28;20116;-70
2021/07/13 12:42:09;;;;;;;6.45;5.82;;;26.60;70.00;;;;;;5011202;28;20026;-69
2021/07/13 12:44:52;;;;;;;7.18;6.00;;;26.60;70.30;;;;;;4995297;28;20627;-70
2021/07/13 12:47:33;;;;;;;8.05;5.68;;;26.80;70.80;;;;;;4996435;28;20026;-70